イルクーツク の空港の天気 - METARとTAF

イルクーツク国際空港 ( UIII / IKT ) - ロシア イルクーツク
飛行場実況気象(Metar)
観測時間06/24 17:30 IRKT (06/24 09:30 UTC)
風向・風速南南東 2m/s
視程10km以上
天気現象
なし
気温25℃
湿度54%
気圧1003hPa
METARUIII 240930Z 16002MPS 090V180 CAVOK 25/15 Q1003 R30/CLRD60 NOSIG RMK QFE708/0944
過去の天気等 Google飛行場航空写真 Wunderground天気予報

過去48時間のMETAR

飛行場予報(TAF)
発表時間: 6/24 16:00 IRKT (6/24 08:00 UTC)
予報対象時間: 24日17時 IRKT ~ 25日17時 IRKT
風向・風速南 4m/s
視程10km以上
全天の4割程度の積乱雲 雲底高度 610m
24日21時 IRKT ~ 25日5時 IRKT に一時的に
天気現象弱い雷雨
全天の8割程度の積乱雲 雲底高度 240m
25日5時 IRKT ~ 25日6時 IRKT に徐々に
風向・風速西北西 7m/s
全天の8割程度の積乱雲 雲底高度 210m
25日6時 IRKT ~ 25日17時 IRKT に一時的に
天気現象弱いしゅう雨
全天の8割程度の雲 雲底高度 90m
全天を覆う積乱雲 雲底高度 210m
TAF UIII 240800Z 2409/2509 18004MPS 9999 SCT020CB
TEMPO 2413/2421 -TSRA BKN008CB
BECMG 2421/2422 30007MPS BKN007CB
TEMPO 2422/2509 -SHRA BKN003 OVC007CB